Time;durP1;ratioP1;P1;durP2;ratioP2;P2;SDS_P1;SDS_P2;PMS_P1;PMS_P2;Temp;Humidity;BMP_temperature;BMP_pressure;BME280_temperature;BME280_humidity;BME280_pressure;Samples;Min_cycle;Max_cycle;Signal;HPM_P1;HPM_P2
2023/01/23 00:00:39;;;;;;;30.90;14.05;;;3.40;99.90;;;;;;6165797;23;20016;-78
2023/01/23 00:03:08;;;;;;;36.20;13.85;;;3.30;99.90;;;;;;6195440;23;20011;-78
2023/01/23 00:05:36;;;;;;;37.08;14.00;;;3.20;99.90;;;;;;6195058;23;20338;-78
2023/01/23 00:08:07;;;;;;;33.35;12.88;;;2.90;99.90;;;;;;6164836;23;20357;-77
2023/01/23 00:11:06;;;;;;;32.72;14.07;;;3.40;99.90;;;;;;6148165;23;20028;-77
2023/01/23 00:16:47;;;;;;;28.20;11.93;;;3.20;99.90;;;;;;6167340;23;20038;-79
2023/01/23 00:19:34;;;;;;;32.33;12.25;;;2.70;99.90;;;;;;6175844;22;20024;-78
2023/01/23 00:25:34;;;;;;;27.90;12.50;;;3.50;99.90;;;;;;6175558;22;20094;-79
2023/01/23 00:28:05;;;;;;;28.33;12.20;;;3.50;99.90;;;;;;6097626;23;20030;-79
2023/01/23 00:30:44;;;;;;;28.73;12.10;;;3.40;99.90;;;;;;6090017;23;20022;-79
2023/01/23 00:36:34;;;;;;;28.00;11.40;;;3.50;99.90;;;;;;6064194;23;20090;-79
2023/01/23 00:39:03;;;;;;;26.63;11.65;;;3.40;99.90;;;;;;6059315;23;20014;-79
2023/01/23 00:41:46;;;;;;;30.20;11.98;;;3.60;99.90;;;;;;6104967;23;20037;-78
2023/01/23 00:44:15;;;;;;;30.85;11.55;;;3.40;99.90;;;;;;6169666;23;20009;-78
2023/01/23 00:46:57;;;;;;;26.90;11.38;;;3.40;99.90;;;;;;6142593;23;20250;-78
2023/01/23 00:53:01;;;;;;;27.27;13.32;;;3.50;99.90;;;;;;6185060;22;20036;-77
2023/01/23 00:55:35;;;;;;;25.63;9.77;;;3.40;99.90;;;;;;6202422;23;20032;-79
2023/01/23 00:58:04;;;;;;;25.88;10.25;;;3.50;99.90;;;;;;6199718;23;20024;-78
2023/01/23 01:00:48;;;;;;;26.83;11.40;;;3.60;99.90;;;;;;6226105;23;20010;31
2023/01/23 01:03:19;;;;;;;24.20;10.48;;;3.50;99.90;;;;;;6141988;23;20026;-78
2023/01/23 01:05:48;;;;;;;24.30;9.68;;;3.10;99.90;;;;;;6116090;23;20022;-78
2023/01/23 01:08:20;;;;;;;22.65;9.52;;;3.50;99.90;;;;;;6199696;23;20021;-78
2023/01/23 01:10:49;;;;;;;24.58;9.98;;;3.60;99.90;;;;;;6168826;23;20817;-78
2023/01/23 01:13:24;;;;;;;26.73;11.43;;;2.80;99.90;;;;;;6181978;23;20036;-78
2023/01/23 01:15:52;;;;;;;30.15;11.63;;;3.40;99.90;;;;;;6235541;23;20079;-78
2023/01/23 01:18:21;;;;;;;28.73;9.68;;;3.50;99.90;;;;;;6197642;23;21102;-80
2023/01/23 01:23:51;;;;;;;20.30;8.25;;;3.50;99.90;;;;;;6120384;23;20025;-79
2023/01/23 01:26:21;;;;;;;20.20;8.82;;;3.60;99.90;;;;;;6139733;23;20017;-79
2023/01/23 01:28:49;;;;;;;21.63;9.13;;;3.40;99.90;;;;;;6143388;23;20018;-79
2023/01/23 01:31:22;;;;;;;23.25;8.65;;;3.40;99.90;;;;;;6095010;23;20064;-79
2023/01/23 01:33:52;;;;;;;;;;;3.40;99.90;;;;;;6065093;23;20037;-78
2023/01/23 01:36:23;;;;;;;19.48;9.02;;;3.40;99.90;;;;;;6111869;23;19917;-78
2023/01/23 01:38:51;;;;;;;23.73;10.30;;;2.90;99.90;;;;;;6085897;22;20025;-79
2023/01/23 01:41:20;;;;;;;20.77;8.90;;;3.50;99.90;;;;;;6203528;23;20027;-78
2023/01/23 01:43:56;;;;;;;22.98;9.30;;;3.40;99.90;;;;;;6174482;23;20021;-77
2023/01/23 01:46:26;;;;;;;22.58;10.23;;;3.40;99.90;;;;;;6176568;23;20027;-77
2023/01/23 01:49:12;;;;;;;21.40;8.43;;;3.40;99.90;;;;;;6175538;23;20072;-77
2023/01/23 01:51:58;;;;;;;21.67;8.95;;;3.20;99.90;;;;;;6221348;23;20028;-78
2023/01/23 01:54:31;;;;;;;24.05;8.68;;;3.40;99.90;;;;;;6228486;23;20021;-78
2023/01/23 01:57:06;;;;;;;23.42;9.77;;;3.10;99.90;;;;;;6200530;23;20076;-78
2023/01/23 01:59:44;;;;;;;22.45;9.00;;;3.40;99.90;;;;;;6206165;23;20027;-78
2023/01/23 02:02:23;;;;;;;22.55;9.35;;;3.30;99.90;;;;;;6200008;23;20024;-78
2023/01/23 02:05:00;;;;;;;18.20;8.20;;;3.20;99.90;;;;;;6233579;23;20013;-78
2023/01/23 02:08:12;;;;;;;19.98;9.43;;;3.30;99.90;;;;;;6219379;23;20019;-78
2023/01/23 02:10:40;;;;;;;22.88;9.75;;;3.40;99.90;;;;;;6165982;23;20023;-78
2023/01/23 02:13:19;;;;;;;19.77;7.95;;;3.50;99.90;;;;;;6221439;23;20020;-78
2023/01/23 02:15:47;;;;;;;22.48;8.48;;;3.30;99.90;;;;;;6218284;23;20031;-78
2023/01/23 02:18:15;;;;;;;24.33;8.95;;;3.30;99.90;;;;;;6194486;23;20092;-78
2023/01/23 02:20:43;;;;;;;22.98;8.38;;;3.30;99.90;;;;;;6200789;23;20025;-78
2023/01/23 02:23:45;;;;;;;23.88;8.18;;;3.20;99.90;;;;;;6200015;23;20012;-78
2023/01/23 02:26:22;;;;;;;20.13;7.85;;;3.10;99.90;;;;;;6215988;23;20024;-78
2023/01/23 02:28:52;;;;;;;;;;;3.30;99.90;;;;;;6213421;23;20029;-79
2023/01/23 02:31:23;;;;;;;23.17;8.23;;;3.30;99.90;;;;;;6197754;23;19961;-80
2023/01/23 02:34:02;;;;;;;19.15;8.05;;;3.30;99.90;;;;;;6207913;23;20031;-79
2023/01/23 02:39:42;;;;;;;22.48;7.93;;;3.40;99.90;;;;;;6134084;23;20093;-79
2023/01/23 02:42:28;;;;;;;18.48;6.82;;;3.80;99.90;;;;;;6176521;23;20029;-79
2023/01/23 02:48:54;;;;;;;14.63;6.85;;;3.40;99.90;;;;;;6084957;23;20573;-77
2023/01/23 02:51:23;;;;;;;19.88;7.63;;;3.40;99.90;;;;;;6060954;23;20019;-77
2023/01/23 02:53:56;;;;;;;17.38;6.35;;;3.60;99.90;;;;;;6031526;23;20019;-77
2023/01/23 02:56:32;;;;;;;17.15;6.80;;;3.40;99.90;;;;;;6061136;23;20074;-77
2023/01/23 03:01:51;;;;;;;16.95;8.20;;;3.40;99.90;;;;;;6101195;23;20018;-77
2023/01/23 03:04:19;;;;;;;18.70;6.93;;;3.40;99.90;;;;;;6107981;23;20070;-77
2023/01/23 03:06:47;;;;;;;18.25;6.97;;;3.30;99.90;;;;;;6058291;23;20029;-77
2023/01/23 03:09:16;;;;;;;17.88;6.63;;;3.80;99.90;;;;;;6050727;23;20025;-79
2023/01/23 03:11:45;;;;;;;16.85;6.97;;;3.30;99.90;;;;;;6072514;23;20506;-77
2023/01/23 03:14:17;;;;;;;22.10;8.90;;;3.30;99.90;;;;;;6095773;23;20025;-77
2023/01/23 03:16:49;;;;;;;17.42;6.68;;;3.30;99.90;;;;;;6052612;23;20026;-77
2023/01/23 03:19:21;;;;;;;18.65;7.07;;;3.30;99.90;;;;;;6080046;23;20034;-77
2023/01/23 03:21:50;;;;;;;21.48;7.82;;;3.40;99.90;;;;;;6072593;23;20091;-77
2023/01/23 03:24:21;;;;;;;16.73;6.65;;;3.30;99.90;;;;;;6100963;23;20113;-77
2023/01/23 03:26:50;;;;;;;16.33;6.07;;;3.30;99.90;;;;;;6049782;23;20018;-77
2023/01/23 03:32:13;;;;;;;18.58;6.53;;;3.60;99.90;;;;;;6076568;23;20541;-77
2023/01/23 03:34:43;;;;;;;17.77;7.32;;;3.20;99.90;;;;;;6078026;23;20028;-77
2023/01/23 03:37:12;;;;;;;15.73;6.80;;;3.20;99.90;;;;;;6077877;23;20439;-78
2023/01/23 03:42:33;;;;;;;17.60;7.82;;;3.20;99.90;;;;;;6087491;23;20019;-79
2023/01/23 03:45:03;;;;;;;18.95;8.13;;;3.30;99.90;;;;;;6080890;23;20081;-78
2023/01/23 03:47:34;;;;;;;22.60;9.50;;;3.50;99.90;;;;;;6092058;23;20049;-78
2023/01/23 03:50:01;;;;;;;21.88;8.85;;;3.40;99.90;;;;;;6103792;23;20030;-78
2023/01/23 03:52:34;;;;;;;;;;;3.20;99.90;;;;;;6081321;23;20006;-78
2023/01/23 03:55:06;;;;;;;22.02;9.82;;;3.20;99.90;;;;;;6109133;23;19917;-78
2023/01/23 03:57:35;;;;;;;19.92;8.85;;;3.30;99.90;;;;;;6105298;23;20077;-78
2023/01/23 04:00:23;;;;;;;25.33;9.55;;;3.20;99.90;;;;;;6115527;23;20024;-78
2023/01/23 04:03:12;;;;;;;20.90;9.27;;;3.20;99.90;;;;;;6085433;23;20090;-78
2023/01/23 04:05:46;;;;;;;20.15;8.85;;;3.20;99.90;;;;;;6059949;23;20106;-78
2023/01/23 04:08:24;;;;;;;20.25;8.40;;;3.30;99.90;;;;;;6085619;23;20018;-78
2023/01/23 04:11:04;;;;;;;20.30;7.85;;;2.90;99.90;;;;;;6060991;23;20027;-78
2023/01/23 04:13:31;;;;;;;21.48;7.63;;;3.30;99.90;;;;;;6056913;23;20470;-78
2023/01/23 04:16:00;;;;;;;15.48;7.18;;;3.50;99.90;;;;;;6056797;23;20027;-79
2023/01/23 04:18:31;;;;;;;16.67;7.57;;;3.10;99.90;;;;;;6073435;23;20022;-78
2023/01/23 04:21:02;;;;;;;18.80;8.07;;;3.30;99.90;;;;;;6073591;23;20042;-78
2023/01/23 04:23:30;;;;;;;17.90;7.47;;;3.20;99.90;;;;;;6025548;23;20022;-78
2023/01/23 04:25:58;;;;;;;20.70;8.93;;;2.20;99.90;;;;;;6049253;23;20598;-78
2023/01/23 04:28:26;;;;;;;19.75;8.20;;;3.20;99.90;;;;;;6042179;23;20387;-78
2023/01/23 04:30:54;;;;;;;16.73;7.72;;;3.20;99.90;;;;;;6065528;23;20015;-78
2023/01/23 04:33:28;;;;;;;16.90;6.85;;;3.20;99.90;;;;;;6049129;23;20061;-78
2023/01/23 04:36:00;;;;;;;17.60;6.95;;;3.10;99.90;;;;;;6094580;23;20077;-80
2023/01/23 04:38:29;;;;;;;16.48;7.40;;;3.10;99.90;;;;;;6095645;23;20050;-79
2023/01/23 04:41:13;;;;;;;21.08;8.20;;;3.10;99.90;;;;;;6097045;23;20023;-77
2023/01/23 04:43:40;;;;;;;15.90;6.93;;;3.10;99.90;;;;;;6098791;23;20018;-78
2023/01/23 04:46:10;;;;;;;19.15;7.40;;;3.10;99.90;;;;;;6095598;23;20065;-77
2023/01/23 04:48:53;;;;;;;17.65;7.90;;;3.10;99.90;;;;;;6098560;23;20032;-77
2023/01/23 04:51:22;;;;;;;21.67;7.82;;;3.10;99.90;;;;;;6100202;23;20018;-77
2023/01/23 04:53:50;;;;;;;22.45;8.13;;;3.10;99.90;;;;;;6105868;23;20033;-79
2023/01/23 04:56:17;;;;;;;24.50;9.45;;;3.00;99.90;;;;;;6134882;23;20029;-77
2023/01/23 04:58:45;;;;;;;21.02;8.43;;;3.00;99.90;;;;;;6083142;23;20113;-77
2023/01/23 05:01:22;;;;;;;19.25;7.75;;;3.00;99.90;;;;;;6106577;23;20021;-77
2023/01/23 05:03:55;;;;;;;17.63;6.78;;;2.80;99.90;;;;;;6113237;23;20021;-78
2023/01/23 05:06:23;;;;;;;17.60;6.68;;;2.90;99.90;;;;;;6106034;23;20018;-78
2023/01/23 05:08:55;;;;;;;19.88;7.47;;;3.00;99.90;;;;;;6108369;23;20041;-78
2023/01/23 05:11:38;;;;;;;16.45;6.57;;;3.00;99.90;;;;;;6112589;23;20347;-78
2023/01/23 05:14:08;;;;;;;17.38;7.43;;;3.00;99.90;;;;;;6110310;23;20077;-78
2023/01/23 05:16:44;;;;;;;17.42;6.25;;;3.00;99.90;;;;;;6116208;23;20010;-78
2023/01/23 05:19:32;;;;;;;17.60;6.55;;;2.90;99.90;;;;;;6050337;23;20027;-78
2023/01/23 05:22:02;;;;;;;18.52;7.47;;;3.00;99.90;;;;;;6027751;23;20046;-78
2023/01/23 05:24:30;;;;;;;20.30;7.63;;;3.00;99.90;;;;;;6027610;23;20086;-78
2023/01/23 05:26:58;;;;;;;18.40;6.75;;;2.80;99.90;;;;;;6025241;23;20071;-78
2023/01/23 05:29:32;;;;;;;16.05;6.40;;;3.00;99.90;;;;;;6021515;23;20023;-78
2023/01/23 05:32:02;;;;;;;19.30;7.93;;;3.00;99.90;;;;;;6025592;23;20030;-78
2023/01/23 05:34:36;;;;;;;20.65;7.13;;;3.00;99.90;;;;;;6042335;23;20483;-78
2023/01/23 05:37:13;;;;;;;17.85;7.32;;;3.00;99.90;;;;;;6013600;23;20020;-78
2023/01/23 05:39:45;;;;;;;19.90;8.13;;;3.00;99.90;;;;;;6012376;23;20106;-78
2023/01/23 05:42:12;;;;;;;21.85;7.78;;;3.00;99.90;;;;;;6012551;23;20468;-78
2023/01/23 05:44:58;;;;;;;19.02;8.43;;;3.00;99.90;;;;;;6035694;23;20054;-78
2023/01/23 05:47:35;;;;;;;27.48;9.38;;;2.60;99.90;;;;;;6033545;23;20023;-78
2023/01/23 05:50:07;;;;;;;21.20;8.32;;;2.90;99.90;;;;;;6036116;23;20504;-78
2023/01/23 05:52:36;;;;;;;25.13;9.95;;;2.80;99.90;;;;;;6070750;23;20116;-78
2023/01/23 05:55:04;;;;;;;23.00;9.93;;;2.90;99.90;;;;;;6117607;23;20533;-78
2023/01/23 05:57:33;;;;;;;24.77;9.77;;;2.60;99.90;;;;;;6095771;23;20069;-78
2023/01/23 06:00:20;;;;;;;25.48;10.68;;;2.80;99.90;;;;;;6115719;23;20060;-78
2023/01/23 06:03:08;;;;;;;26.55;10.30;;;2.70;99.90;;;;;;6096615;23;20023;-78
2023/01/23 06:06:03;;;;;;;24.20;10.25;;;2.60;99.90;;;;;;6120797;23;20018;-78
2023/01/23 06:08:32;;;;;;;23.88;9.02;;;2.70;99.90;;;;;;6073341;23;20032;-78
2023/01/23 06:11:02;;;;;;;25.05;9.50;;;2.50;99.90;;;;;;6096713;23;20021;-78
2023/01/23 06:13:30;;;;;;;30.35;11.05;;;2.10;99.90;;;;;;6101383;23;20609;-78
2023/01/23 06:15:57;;;;;;;33.67;14.13;;;2.70;99.90;;;;;;6102592;23;20023;-78
2023/01/23 06:18:25;;;;;;;29.60;12.82;;;2.80;99.90;;;;;;6105613;23;20140;-78
2023/01/23 06:20:57;;;;;;;31.70;13.68;;;1.70;99.90;;;;;;6103900;23;20462;-78
2023/01/23 06:23:25;;;;;;;29.27;13.20;;;2.80;99.90;;;;;;6123273;23;20042;-78
2023/01/23 06:25:53;;;;;;;28.70;12.52;;;2.70;99.90;;;;;;6099699;23;20363;-78
2023/01/23 06:28:22;;;;;;;30.20;11.48;;;2.70;99.90;;;;;;6127250;23;20029;-78
2023/01/23 06:30:49;;;;;;;30.42;13.77;;;2.80;99.90;;;;;;6100807;23;20046;-78
2023/01/23 06:33:30;;;;;;;27.40;13.00;;;2.70;99.90;;;;;;6098550;23;20022;-78
2023/01/23 06:35:59;;;;;;;28.88;12.57;;;2.80;99.90;;;;;;6075964;23;20033;-78
2023/01/23 06:38:28;;;;;;;29.20;12.27;;;2.80;99.90;;;;;;6127406;23;20022;-78
2023/01/23 06:40:57;;;;;;;29.15;13.40;;;2.70;99.90;;;;;;6098110;23;20022;-78
2023/01/23 06:43:31;;;;;;;30.13;12.98;;;2.80;99.90;;;;;;6094840;23;20032;-78
2023/01/23 06:45:59;;;;;;;31.85;13.82;;;2.90;99.90;;;;;;6110876;23;20082;-78
2023/01/23 06:48:27;;;;;;;66.30;24.33;;;2.80;99.90;;;;;;6092188;23;20042;-78
2023/01/23 06:50:59;;;;;;;39.85;17.70;;;2.80;99.90;;;;;;6092926;23;20015;-78
2023/01/23 06:53:27;;;;;;;42.70;19.27;;;2.90;99.90;;;;;;6067830;23;20022;-78
2023/01/23 06:55:59;;;;;;;44.92;19.20;;;2.80;99.90;;;;;;6100494;23;20450;-78
2023/01/23 06:58:29;;;;;;;33.00;14.13;;;2.00;99.90;;;;;;6095749;23;20033;-78
2023/01/23 07:00:59;;;;;;;34.90;15.07;;;2.80;99.90;;;;;;6099640;23;20085;-78
2023/01/23 07:03:45;;;;;;;29.75;13.63;;;2.80;99.90;;;;;;6107311;23;20470;-78
2023/01/23 07:06:16;;;;;;;35.17;14.85;;;2.80;99.90;;;;;;6131866;23;20023;-78
2023/01/23 07:08:44;;;;;;;32.70;14.35;;;2.70;99.90;;;;;;6110609;23;20022;-78
2023/01/23 07:11:11;;;;;;;37.13;15.45;;;2.50;99.90;;;;;;6113120;23;20109;-78
2023/01/23 07:13:39;;;;;;;36.55;16.08;;;3.20;99.90;;;;;;6114091;23;20026;-78
2023/01/23 07:16:08;;;;;;;32.25;13.55;;;3.30;99.90;;;;;;6096473;23;20265;-78
2023/01/23 07:19:09;;;;;;;29.90;13.68;;;3.50;99.90;;;;;;6147178;23;20006;31
2023/01/23 07:24:23;;;;;;;29.48;10.60;;;3.70;99.90;;;;;;6177980;23;20348;-77
2023/01/23 07:26:50;;;;;;;24.67;11.75;;;3.80;99.90;;;;;;6159002;23;21194;-79
2023/01/23 07:33:08;;;;;;;19.27;8.32;;;4.00;99.90;;;;;;6125978;23;20235;31
2023/01/23 07:35:38;;;;;;;20.50;8.43;;;4.10;99.90;;;;;;6127314;23;20032;-80
2023/01/23 07:38:10;;;;;;;17.52;8.23;;;4.40;99.90;;;;;;6149068;23;20008;-80
2023/01/23 07:40:41;;;;;;;19.75;7.00;;;4.30;99.90;;;;;;6156131;23;20030;-78
2023/01/23 07:43:09;;;;;;;17.17;6.95;;;4.40;99.90;;;;;;6091152;23;20881;-78
2023/01/23 07:45:49;;;;;;;13.00;6.07;;;4.50;99.90;;;;;;6145161;23;20012;-78
2023/01/23 07:49:04;;;;;;;15.20;5.38;;;4.70;99.90;;;;;;6117047;23;20048;31
2023/01/23 07:51:36;;;;;;;11.60;5.45;;;4.80;99.90;;;;;;6122560;23;20040;-78
2023/01/23 07:54:21;;;;;;;9.73;2.75;;;5.00;99.90;;;;;;6130371;23;20004;31
2023/01/23 07:56:58;;;;;;;9.82;3.90;;;4.80;99.90;;;;;;6132986;23;20025;-78
2023/01/23 08:06:40;;;;;;;9.68;3.20;;;5.20;99.90;;;;;;6174217;22;20050;-78
2023/01/23 08:09:43;;;;;;;9.18;3.55;;;5.30;99.90;;;;;;6227812;22;20048;-78
2023/01/23 08:12:27;;;;;;;9.85;3.63;;;5.40;99.90;;;;;;6199462;23;20020;-77
2023/01/23 08:14:58;;;;;;;8.80;3.10;;;5.40;99.90;;;;;;6188154;23;20193;-78
2023/01/23 08:18:00;;;;;;;5.32;2.22;;;5.40;99.90;;;;;;6149871;23;20018;-78
2023/01/23 08:20:28;;;;;;;8.20;3.28;;;5.30;99.90;;;;;;6138605;23;20026;-78
2023/01/23 08:26:20;;;;;;;5.70;2.70;;;5.50;99.90;;;;;;6148095;23;20009;31
2023/01/23 08:28:48;;;;;;;7.57;3.47;;;5.50;99.90;;;;;;6181062;23;20369;-78
2023/01/23 08:31:22;;;;;;;8.50;2.78;;;5.40;99.90;;;;;;6169823;23;20021;-77
2023/01/23 08:34:05;;;;;;;11.05;3.63;;;5.50;99.90;;;;;;6139876;23;20017;-77
2023/01/23 08:36:39;;;;;;;6.28;2.70;;;5.30;99.90;;;;;;6113206;23;20064;-78
2023/01/23 08:39:06;;;;;;;6.88;2.88;;;5.60;99.90;;;;;;6164073;23;20017;-77
2023/01/23 08:41:43;;;;;;;6.60;2.53;;;6.20;99.90;;;;;;6179817;23;20021;-78
2023/01/23 08:44:30;;;;;;;7.68;3.03;;;6.00;99.90;;;;;;6173415;23;20023;-78
2023/01/23 08:47:03;;;;;;;7.30;3.05;;;5.60;99.90;;;;;;6150579;23;20033;-77
2023/01/23 08:49:32;;;;;;;6.93;3.03;;;5.90;99.90;;;;;;6128163;23;20021;-78
2023/01/23 08:52:06;;;;;;;6.93;3.13;;;5.90;99.90;;;;;;6153738;23;20017;31
2023/01/23 08:55:04;;;;;;;8.00;3.20;;;5.90;99.90;;;;;;6187883;23;20037;31
2023/01/23 08:57:34;;;;;;;7.13;3.15;;;5.90;99.90;;;;;;6133057;23;20026;-78
2023/01/23 09:00:23;;;;;;;8.15;3.15;;;7.20;99.90;;;;;;6141016;23;20028;-78
2023/01/23 09:02:54;;;;;;;8.18;4.10;;;5.60;99.90;;;;;;6172341;23;20069;-77
2023/01/23 09:05:25;;;;;;;6.75;2.95;;;5.80;99.90;;;;;;6168322;23;20404;-77
2023/01/23 09:07:56;;;;;;;6.85;3.08;;;6.10;99.90;;;;;;6172212;23;20021;-77
2023/01/23 09:10:56;;;;;;;7.53;2.80;;;6.00;99.90;;;;;;6151126;23;20021;-78
2023/01/23 09:13:46;;;;;;;7.53;3.38;;;5.40;99.90;;;;;;6119513;23;20010;-77
2023/01/23 09:16:18;;;;;;;9.55;2.90;;;6.40;99.90;;;;;;6140419;23;20005;-79
2023/01/23 09:18:56;;;;;;;7.80;3.13;;;6.40;99.90;;;;;;6145695;23;19997;-79
2023/01/23 09:21:55;;;;;;;8.20;3.72;;;6.40;99.90;;;;;;6202574;23;20079;-77
2023/01/23 09:24:25;;;;;;;7.63;2.90;;;6.50;99.90;;;;;;6134416;23;20006;-78
2023/01/23 09:26:58;;;;;;;8.20;3.10;;;6.50;99.90;;;;;;6094251;23;20030;-77
2023/01/23 09:29:44;;;;;;;7.75;3.30;;;6.60;99.90;;;;;;6068120;23;20129;-77
2023/01/23 09:32:21;;;;;;;6.80;2.72;;;6.80;99.90;;;;;;6110665;23;20073;-78
2023/01/23 09:35:23;;;;;;;7.82;3.90;;;6.90;99.90;;;;;;6183901;23;20008;-80
2023/01/23 09:38:27;;;;;;;9.10;3.60;;;6.80;99.90;;;;;;6087735;23;20023;-79
2023/01/23 09:41:31;;;;;;;8.38;2.97;;;7.30;99.90;;;;;;6104090;23;20253;-79
2023/01/23 09:51:04;;;;;;;;;;;7.90;99.90;;;;;;6154031;23;20032;-78
2023/01/23 09:53:47;;;;;;;10.25;3.17;;;7.90;99.90;;;;;;6045904;23;20253;-78
2023/01/23 09:57:17;;;;;;;12.00;4.40;;;7.80;99.90;;;;;;6151208;23;20025;-78
2023/01/23 10:00:24;;;;;;;6.82;3.08;;;7.80;99.90;;;;;;6162114;23;20025;-79
2023/01/23 10:03:59;;;;;;;7.85;2.95;;;7.70;99.90;;;;;;6103848;23;20041;-78
2023/01/23 10:20:15;;;;;;;6.88;2.83;;;8.00;99.90;;;;;;6121193;22;3160632;-80
2023/01/23 10:23:15;;;;;;;8.70;3.42;;;8.30;99.90;;;;;;6219106;23;20024;-79
2023/01/23 10:25:52;;;;;;;7.75;3.97;;;8.40;99.90;;;;;;6216744;23;20008;-79
2023/01/23 10:28:59;;;;;;;6.40;3.25;;;8.50;99.90;;;;;;6188837;23;20226;-80
2023/01/23 10:31:47;;;;;;;6.10;2.38;;;8.60;99.90;;;;;;6122026;23;20017;-79
2023/01/23 10:34:34;;;;;;;7.78;3.90;;;8.50;99.90;;;;;;6116901;23;20025;-77
2023/01/23 10:37:44;;;;;;;6.47;2.45;;;8.40;99.90;;;;;;6187432;23;20013;-78
2023/01/23 10:43:26;;;;;;;7.60;3.30;;;8.30;99.90;;;;;;6099466;23;20091;-78
2023/01/23 10:45:58;;;;;;;7.35;2.78;;;8.30;99.90;;;;;;6112988;23;20076;-78
2023/01/23 10:48:45;;;;;;;6.22;2.67;;;8.40;99.90;;;;;;6187800;23;20040;-78
2023/01/23 10:51:45;;;;;;;3.90;2.38;;;8.50;99.90;;;;;;6171411;23;20040;-78
2023/01/23 10:54:28;;;;;;;6.78;2.75;;;8.00;99.90;;;;;;6152942;23;20033;-78
2023/01/23 10:57:36;;;;;;;6.88;2.72;;;8.60;99.90;;;;;;6131419;23;20306;-79
2023/01/23 11:00:25;;;;;;;6.32;2.60;;;8.70;99.90;;;;;;6160821;23;20402;-78
2023/01/23 11:03:59;;;;;;;7.10;3.28;;;8.80;99.90;;;;;;6132147;23;20023;-79
2023/01/23 11:06:31;;;;;;;;;;;8.80;99.90;;;;;;6083909;23;20023;-79
2023/01/23 11:09:01;;;;;;;5.47;2.53;;;9.00;99.90;;;;;;6050748;23;19921;-79
2023/01/23 11:11:33;;;;;;;3.92;2.03;;;8.90;99.90;;;;;;6064412;23;20069;-79
2023/01/23 11:14:21;;;;;;;7.35;3.05;;;8.90;99.90;;;;;;6059096;23;20049;-78
2023/01/23 11:17:11;;;;;;;8.27;2.33;;;9.00;99.90;;;;;;6086214;23;20014;-79
2023/01/23 11:19:40;;;;;;;7.10;2.60;;;9.00;99.90;;;;;;6046786;23;20018;-79
2023/01/23 11:22:33;;;;;;;7.85;2.90;;;9.10;99.90;;;;;;6082754;23;20022;-78
2023/01/23 11:25:32;;;;;;;7.97;2.03;;;9.00;99.90;;;;;;6059289;23;20094;-79
2023/01/23 11:28:22;;;;;;;8.40;3.25;;;9.20;99.90;;;;;;6062969;23;20366;-79
2023/01/23 11:31:13;;;;;;;4.30;2.38;;;9.00;99.90;;;;;;6057951;23;20105;-78
2023/01/23 11:34:33;;;;;;;5.03;2.25;;;9.60;99.90;;;;;;6084040;23;20022;-79
2023/01/23 11:37:27;;;;;;;7.78;3.28;;;9.00;99.90;;;;;;6119088;23;20531;-79
2023/01/23 11:40:19;;;;;;;8.38;3.33;;;8.90;99.90;;;;;;6222352;23;20503;-79
2023/01/23 11:43:04;;;;;;;6.22;2.75;;;8.90;99.90;;;;;;6235791;23;20001;-79
2023/01/23 11:46:21;;;;;;;2.60;1.08;;;9.10;99.90;;;;;;6160193;23;20024;-79
2023/01/23 11:49:23;;;;;;;5.82;2.53;;;9.20;99.90;;;;;;6236556;23;20005;-79
2023/01/23 11:52:37;;;;;;;5.88;2.38;;;9.30;99.90;;;;;;6226607;22;20018;-80
2023/01/23 11:56:15;;;;;;;4.70;2.22;;;9.20;99.90;;;;;;6088027;23;20066;-79
2023/01/23 11:59:27;;;;;;;6.30;2.83;;;9.30;99.90;;;;;;6116254;23;20033;-79
2023/01/23 12:09:15;;;;;;;6.80;3.00;;;9.30;99.90;;;;;;6107418;23;20029;-78
2023/01/23 12:12:03;;;;;;;6.28;2.60;;;9.30;99.90;;;;;;6088645;23;20025;-78
2023/01/23 12:14:58;;;;;;;67.47;24.63;;;9.40;99.90;;;;;;6103558;23;20354;-78
2023/01/23 12:21:52;;;;;;;10.90;4.80;;;9.10;99.90;;;;;;6179867;22;20051;-79
2023/01/23 12:24:55;;;;;;;10.48;5.25;;;9.20;99.90;;;;;;6122033;22;20028;-78
2023/01/23 12:27:43;;;;;;;9.50;6.13;;;9.20;99.90;;;;;;6147293;23;20069;-78
2023/01/23 12:30:43;;;;;;;12.07;7.75;;;9.40;99.90;;;;;;6089892;23;20034;-78
2023/01/23 12:33:59;;;;;;;8.85;3.90;;;9.30;99.90;;;;;;6103374;23;20046;-78
2023/01/23 12:37:23;;;;;;;7.97;4.63;;;9.00;99.90;;;;;;6044073;23;20077;-78
2023/01/23 12:40:14;;;;;;;7.30;3.25;;;9.40;99.90;;;;;;6086635;23;20033;-78
2023/01/23 12:43:20;;;;;;;5.85;2.75;;;9.00;99.90;;;;;;6096739;23;20002;-78
2023/01/23 12:52:47;;;;;;;5.72;2.45;;;9.50;99.90;;;;;;6204646;23;19993;-78
2023/01/23 12:56:06;;;;;;;3.97;1.65;;;9.60;99.90;;;;;;6060305;23;20003;-78
2023/01/23 12:59:00;;;;;;;6.68;3.55;;;9.50;99.90;;;;;;6169356;23;20024;-78
2023/01/23 13:02:42;;;;;;;7.30;3.00;;;9.60;99.90;;;;;;6219830;23;20021;-78
2023/01/23 13:05:20;;;;;;;8.13;3.53;;;9.60;99.90;;;;;;6167627;23;20021;-79
2023/01/23 13:08:46;;;;;;;5.97;3.30;;;9.60;99.90;;;;;;6208948;23;20044;-79
2023/01/23 13:11:54;;;;;;;8.20;2.95;;;9.40;99.90;;;;;;6200896;23;20023;-79
2023/01/23 13:14:43;;;;;;;5.93;2.65;;;9.30;99.90;;;;;;6223129;23;20874;-79
2023/01/23 13:17:57;;;;;;;8.55;3.13;;;9.30;99.90;;;;;;6219697;23;20036;-78
2023/01/23 13:27:38;;;;;;;9.55;3.65;;;9.30;99.90;;;;;;6212443;23;20020;-78
2023/01/23 13:30:35;;;;;;;8.32;3.58;;;9.10;99.90;;;;;;6188668;23;20110;-78
2023/01/23 13:33:33;;;;;;;5.90;3.05;;;9.10;99.90;;;;;;6227636;23;20464;-78
2023/01/23 13:36:36;;;;;;;9.13;3.75;;;9.20;99.90;;;;;;6182605;23;20025;-79
2023/01/23 13:39:28;;;;;;;8.07;3.50;;;9.20;99.90;;;;;;6207442;23;20039;-79
2023/01/23 13:45:27;;;;;;;5.68;2.42;;;9.10;99.90;;;;;;6113052;23;20029;-78
2023/01/23 13:51:21;;;;;;;12.60;4.93;;;9.00;99.90;;;;;;5985751;23;20027;-78
2023/01/23 13:57:19;;;;;;;12.45;5.30;;;8.80;99.90;;;;;;5852018;24;20121;-79
2023/01/23 14:00:01;;;;;;;13.70;6.05;;;8.80;99.90;;;;;;5741623;24;20404;-78
2023/01/23 14:06:09;;;;;;;12.63;5.35;;;8.70;99.90;;;;;;6049060;23;20097;-78
2023/01/23 14:08:53;;;;;;;11.40;5.55;;;8.60;99.90;;;;;;5940384;24;20024;-78
2023/01/23 14:11:37;;;;;;;13.20;5.47;;;8.50;99.90;;;;;;5945679;24;20063;-80
2023/01/23 14:17:19;;;;;;;15.45;7.63;;;8.50;99.90;;;;;;5756542;24;20118;-79
2023/01/23 14:20:05;;;;;;;8.43;4.70;;;8.50;99.90;;;;;;5684593;25;20099;-79
2023/01/23 14:22:47;;;;;;;12.32;4.78;;;8.30;99.90;;;;;;5982193;23;20017;-78
2023/01/23 14:25:18;;;;;;;13.02;5.32;;;8.40;99.90;;;;;;6211122;23;20380;-79
2023/01/23 14:28:00;;;;;;;14.10;6.03;;;8.40;99.90;;;;;;6156624;23;20030;-78
2023/01/23 14:30:30;;;;;;;10.65;5.38;;;8.40;99.90;;;;;;6187612;23;20467;-78
2023/01/23 14:32:58;;;;;;;17.33;6.75;;;8.70;99.90;;;;;;6215751;23;20527;-78
2023/01/23 14:35:30;;;;;;;14.05;6.65;;;8.30;99.90;;;;;;6221013;23;20013;-78
2023/01/23 14:38:06;;;;;;;16.17;5.88;;;8.40;99.90;;;;;;6190657;23;20048;-78
2023/01/23 14:40:34;;;;;;;12.18;5.18;;;8.40;99.90;;;;;;6220189;23;20074;-78
2023/01/23 14:43:28;;;;;;;11.80;5.20;;;8.50;99.90;;;;;;6165954;23;20035;-78
2023/01/23 14:49:23;;;;;;;11.45;5.57;;;8.40;99.90;;;;;;6191051;23;20032;-79
2023/01/23 14:52:02;;;;;;;12.55;5.30;;;8.30;99.90;;;;;;6189456;23;20445;-79
2023/01/23 14:55:04;;;;;;;11.43;5.38;;;8.30;99.90;;;;;;6166607;23;20029;-78
2023/01/23 14:57:38;;;;;;;11.10;4.78;;;8.30;99.90;;;;;;6129505;23;20009;-78
2023/01/23 15:00:14;;;;;;;11.68;5.20;;;8.40;99.90;;;;;;6092018;23;20395;-79
2023/01/23 15:02:45;;;;;;;12.77;6.63;;;8.20;99.90;;;;;;6071289;23;20033;-79
2023/01/23 15:05:14;;;;;;;12.55;7.15;;;8.20;99.90;;;;;;6103487;23;20029;-78
2023/01/23 15:07:53;;;;;;;9.65;4.97;;;8.20;99.90;;;;;;6074059;23;19998;-78
2023/01/23 15:10:24;;;;;;;14.05;6.80;;;8.20;99.90;;;;;;6074092;23;20542;-78
2023/01/23 15:13:02;;;;;;;15.50;6.35;;;8.20;99.90;;;;;;6071650;23;20029;-79
2023/01/23 15:15:31;;;;;;;13.73;6.30;;;8.10;99.90;;;;;;6116890;23;20502;-79
2023/01/23 15:18:00;;;;;;;17.33;8.27;;;8.00;99.90;;;;;;6121348;23;20089;-78
2023/01/23 15:20:29;;;;;;;13.90;7.68;;;8.00;99.90;;;;;;6099790;23;20050;-78
2023/01/23 15:22:57;;;;;;;13.18;6.80;;;8.10;99.90;;;;;;6046803;23;20038;-78
2023/01/23 15:25:31;;;;;;;16.48;7.97;;;8.00;99.90;;;;;;6096725;23;20346;-78
2023/01/23 15:27:59;;;;;;;14.55;7.38;;;8.10;99.90;;;;;;6092502;23;20450;-78
2023/01/23 15:30:44;;;;;;;13.02;6.55;;;7.90;99.90;;;;;;6076639;23;20362;-78
2023/01/23 15:33:24;;;;;;;14.50;6.25;;;8.00;99.90;;;;;;6092740;23;20022;-78
2023/01/23 15:36:00;;;;;;;9.60;5.25;;;8.00;99.90;;;;;;6118173;23;20070;-78
2023/01/23 15:38:28;;;;;;;10.43;5.07;;;7.90;99.90;;;;;;6071570;23;20093;-78
2023/01/23 15:40:57;;;;;;;13.93;5.55;;;7.90;99.90;;;;;;6049555;23;20071;-78
2023/01/23 15:43:24;;;;;;;11.02;6.30;;;7.90;99.90;;;;;;6043053;23;20573;-78
2023/01/23 15:45:52;;;;;;;9.00;4.85;;;8.00;99.90;;;;;;6093968;23;20023;-78
2023/01/23 15:48:20;;;;;;;11.32;5.28;;;7.90;99.90;;;;;;6131217;23;20445;-79
2023/01/23 15:50:48;;;;;;;12.95;5.78;;;8.00;99.90;;;;;;6167029;23;20018;-78